Time;durP1;ratioP1;P1;durP2;ratioP2;P2;SDS_P1;SDS_P2;PMS_P1;PMS_P2;Temp;Humidity;BMP_temperature;BMP_pressure;BME280_temperature;BME280_humidity;BME280_pressure;Samples;Min_cycle;Max_cycle;Signal;HPM_P1;HPM_P2
2021/01/16 00:00:53;;;;;;;18.47;15.03;;;0.80;98.40;;;;;;5052868;28;20272;-76
2021/01/16 00:03:18;;;;;;;18.47;14.90;;;0.80;98.10;;;;;;5057495;28;20289;-76
2021/01/16 00:05:47;;;;;;;20.10;14.77;;;0.80;98.40;;;;;;5062340;28;20217;-76
2021/01/16 00:08:15;;;;;;;18.70;15.83;;;0.80;98.50;;;;;;5056947;28;20268;-72
2021/01/16 00:10:45;;;;;;;19.53;15.17;;;0.70;98.70;;;;;;5057130;28;20206;-75
2021/01/16 00:13:12;;;;;;;17.97;14.37;;;0.80;98.60;;;;;;5055340;28;20196;-74
2021/01/16 00:15:37;;;;;;;19.63;15.50;;;0.80;98.50;;;;;;5057699;28;20199;-75
2021/01/16 00:18:12;;;;;;;18.50;14.33;;;0.70;98.60;;;;;;5058323;28;20227;-75
2021/01/16 00:20:42;;;;;;;19.30;14.93;;;0.70;98.50;;;;;;5055054;28;20194;-75
2021/01/16 00:23:09;;;;;;;17.83;15.17;;;0.80;98.40;;;;;;5081827;28;20195;-75
2021/01/16 00:25:38;;;;;;;21.20;15.50;;;0.70;98.70;;;;;;5079181;28;20227;-76
2021/01/16 00:28:05;;;;;;;19.30;14.60;;;0.70;98.40;;;;;;5089532;28;20210;-75
2021/01/16 00:30:33;;;;;;;20.33;15.93;;;0.70;98.40;;;;;;5078360;28;20182;-75
2021/01/16 00:33:00;;;;;;;18.57;14.50;;;0.70;98.40;;;;;;5079302;28;20665;-75
2021/01/16 00:35:28;;;;;;;18.87;15.23;;;0.70;98.40;;;;;;5080656;28;20265;-75
2021/01/16 00:37:55;;;;;;;18.57;14.33;;;0.70;98.50;;;;;;5078773;28;20209;-75
2021/01/16 00:40:26;;;;;;;18.60;14.80;;;0.60;98.50;;;;;;5080645;28;20270;-75
2021/01/16 00:42:54;;;;;;;16.17;14.03;;;0.70;98.40;;;;;;5081724;28;20247;-75
2021/01/16 00:45:20;;;;;;;19.13;15.17;;;0.70;98.40;;;;;;5082621;28;20281;-74
2021/01/16 00:47:47;;;;;;;18.57;14.93;;;0.70;98.60;;;;;;5078273;28;20210;-74
2021/01/16 00:50:16;;;;;;;18.33;15.20;;;0.70;98.50;;;;;;5085628;28;20190;-74
2021/01/16 00:52:41;;;;;;;20.27;15.73;;;0.70;98.50;;;;;;5077444;28;20194;-75
2021/01/16 00:55:09;;;;;;;19.17;14.90;;;0.70;98.50;;;;;;5079317;28;20187;-74
2021/01/16 00:57:35;;;;;;;17.07;15.00;;;0.70;98.40;;;;;;5084427;28;20216;-76
2021/01/16 01:00:01;;;;;;;19.73;15.87;;;0.70;98.30;;;;;;5083775;28;20265;-75
2021/01/16 01:02:26;;;;;;;19.97;15.97;;;0.70;98.50;;;;;;5080134;28;20663;-74
2021/01/16 01:04:52;;;;;;;19.97;16.37;;;0.70;98.50;;;;;;5084598;28;20180;-75
2021/01/16 01:07:17;;;;;;;21.00;16.87;;;0.70;98.40;;;;;;5078654;28;20232;-77
2021/01/16 01:09:45;;;;;;;18.50;15.70;;;0.70;98.40;;;;;;5079418;28;20270;-75
2021/01/16 01:12:12;;;;;;;20.67;16.13;;;0.70;98.30;;;;;;5078189;28;20200;-74
2021/01/16 01:14:38;;;;;;;22.43;16.77;;;0.70;98.20;;;;;;5075475;28;20191;-74
2021/01/16 01:17:17;;;;;;;20.23;15.50;;;0.60;98.10;;;;;;5073279;28;20761;-75
2021/01/16 01:19:43;;;;;;;21.83;16.27;;;0.60;98.20;;;;;;5078709;28;20187;-74
2021/01/16 01:22:10;;;;;;;21.90;16.43;;;0.50;98.10;;;;;;5073681;28;20212;-75
2021/01/16 01:24:36;;;;;;;22.53;15.53;;;0.50;98.50;;;;;;5079717;28;20234;-74
2021/01/16 01:27:03;;;;;;;20.40;15.37;;;0.50;98.50;;;;;;5083823;28;20690;-73
2021/01/16 01:29:29;;;;;;;20.17;15.90;;;0.60;98.60;;;;;;5080789;28;20193;-76
2021/01/16 01:31:55;;;;;;;20.67;16.20;;;0.60;98.50;;;;;;5079725;28;20190;-74
2021/01/16 01:34:20;;;;;;;20.60;16.00;;;0.60;98.30;;;;;;5077989;28;20222;-74
2021/01/16 01:36:46;;;;;;;19.07;15.60;;;0.50;98.50;;;;;;5075298;28;20638;-75
2021/01/16 01:39:11;;;;;;;20.50;15.90;;;0.60;98.40;;;;;;5091470;28;20190;-76
2021/01/16 01:41:38;;;;;;;19.30;15.47;;;0.60;98.20;;;;;;5093062;28;20186;-75
2021/01/16 01:44:05;;;;;;;18.60;14.93;;;0.60;98.30;;;;;;5092830;28;20189;-74
2021/01/16 01:46:32;;;;;;;19.37;15.60;;;0.60;98.30;;;;;;5096564;28;20214;-75
2021/01/16 01:48:57;;;;;;;19.90;16.00;;;0.60;98.20;;;;;;5103769;28;20182;-74
2021/01/16 01:51:24;;;;;;;18.70;15.43;;;0.50;98.40;;;;;;5092501;28;20188;-76
2021/01/16 01:53:54;;;;;;;18.70;15.87;;;0.50;98.40;;;;;;5094350;28;20183;-75
2021/01/16 01:56:22;;;;;;;21.67;16.30;;;0.50;98.20;;;;;;5095608;28;20216;-74
2021/01/16 01:58:50;;;;;;;21.43;16.57;;;0.50;98.40;;;;;;5086998;28;20193;-76
2021/01/16 02:01:18;;;;;;;21.43;16.77;;;0.60;98.50;;;;;;5085173;28;20197;-75
2021/01/16 02:03:47;;;;;;;20.97;16.43;;;0.60;98.00;;;;;;5093775;28;20200;-75
2021/01/16 02:06:12;;;;;;;22.00;17.00;;;0.60;98.10;;;;;;5085391;28;20199;-75
2021/01/16 02:08:38;;;;;;;19.97;15.60;;;0.50;98.10;;;;;;5094589;28;20188;-75
2021/01/16 02:11:04;;;;;;;18.97;15.23;;;0.60;97.80;;;;;;5091144;28;20205;-74
2021/01/16 02:13:29;;;;;;;19.60;15.67;;;0.60;97.90;;;;;;5089099;28;20189;-74
2021/01/16 02:16:21;;;;;;;21.27;15.87;;;0.60;97.60;;;;;;5091240;28;20208;-74
2021/01/16 02:18:50;;;;;;;21.77;15.60;;;0.60;97.70;;;;;;5080556;28;20549;-74
2021/01/16 02:21:19;;;;;;;21.60;15.80;;;0.60;97.60;;;;;;5082441;28;20192;-75
2021/01/16 02:24:06;;;;;;;19.20;15.43;;;0.60;97.50;;;;;;5080649;28;20209;-74
2021/01/16 02:27:00;;;;;;;23.77;15.57;;;0.60;97.50;;;;;;5076538;28;20289;-74
2021/01/16 02:29:26;;;;;;;19.23;15.30;;;0.60;97.30;;;;;;5083244;28;20185;-74
2021/01/16 02:32:01;;;;;;;23.57;15.73;;;0.60;97.10;;;;;;5080404;28;20192;-76
2021/01/16 02:34:31;;;;;;;20.53;15.43;;;0.60;96.90;;;;;;5077278;28;20252;-74
2021/01/16 02:37:29;;;;;;;21.73;16.27;;;0.60;97.10;;;;;;5083775;28;20237;-74
2021/01/16 02:40:18;;;;;;;20.03;15.70;;;0.60;96.90;;;;;;5082223;28;20177;-75
2021/01/16 02:43:02;;;;;;;22.50;16.07;;;0.60;97.10;;;;;;5083309;28;20180;-74
2021/01/16 02:45:34;;;;;;;25.80;17.20;;;0.60;97.20;;;;;;5093638;28;20233;-75
2021/01/16 02:48:22;;;;;;;22.40;15.90;;;0.60;97.30;;;;;;5095624;28;20202;-75
2021/01/16 02:50:50;;;;;;;24.63;18.23;;;0.60;97.20;;;;;;5092824;28;20308;-74
2021/01/16 02:53:23;;;;;;;23.07;16.87;;;0.60;97.30;;;;;;5092138;28;20218;-75
2021/01/16 02:55:50;;;;;;;22.83;16.47;;;0.60;97.50;;;;;;5085603;28;20197;-74
2021/01/16 02:58:19;;;;;;;21.13;16.90;;;0.50;97.40;;;;;;5087102;28;20293;-74
2021/01/16 03:00:46;;;;;;;21.20;17.03;;;0.50;97.80;;;;;;5085190;28;20193;-74
2021/01/16 03:03:12;;;;;;;19.90;16.20;;;0.50;97.90;;;;;;5081235;28;20679;-74
2021/01/16 03:05:38;;;;;;;21.17;16.43;;;0.40;98.20;;;;;;5084870;28;20182;-75
2021/01/16 03:08:04;;;;;;;24.30;17.30;;;0.50;98.30;;;;;;5084937;28;20215;-75
2021/01/16 03:10:32;;;;;;;22.03;16.07;;;0.50;98.10;;;;;;5088150;28;20182;-74
2021/01/16 03:12:58;;;;;;;23.17;16.50;;;0.50;98.30;;;;;;5086349;28;20207;-75
2021/01/16 03:15:24;;;;;;;24.57;18.30;;;0.50;98.40;;;;;;5079270;28;20210;-75
2021/01/16 03:17:57;;;;;;;22.00;17.50;;;0.50;98.60;;;;;;5086368;28;20259;-76
2021/01/16 03:20:31;;;;;;;22.73;17.37;;;0.50;98.20;;;;;;5079654;28;20653;-75
2021/01/16 03:23:03;;;;;;;22.20;16.83;;;0.50;98.00;;;;;;5085144;28;20695;-74
2021/01/16 03:25:31;;;;;;;20.10;16.53;;;0.50;98.00;;;;;;5088174;28;20653;-74
2021/01/16 03:27:57;;;;;;;23.37;17.77;;;0.50;98.00;;;;;;5077916;28;20289;-75
2021/01/16 03:30:23;;;;;;;24.37;18.33;;;0.40;98.00;;;;;;5081221;28;20221;-74
2021/01/16 03:32:51;;;;;;;22.10;17.20;;;0.40;98.10;;;;;;5079437;28;20275;-74
2021/01/16 03:35:20;;;;;;;22.07;16.87;;;0.30;98.50;;;;;;5081826;28;20185;-74
2021/01/16 03:37:47;;;;;;;22.77;17.03;;;0.30;98.30;;;;;;5078165;28;20224;-75
2021/01/16 03:40:14;;;;;;;23.30;17.07;;;0.30;98.50;;;;;;5080690;28;20874;-74
2021/01/16 03:42:40;;;;;;;24.03;17.40;;;0.20;98.70;;;;;;5084258;28;20531;-75
2021/01/16 03:45:10;;;;;;;24.37;17.87;;;0.20;98.90;;;;;;5079677;28;20183;-74
2021/01/16 03:47:36;;;;;;;23.77;17.83;;;0.10;98.90;;;;;;5078017;28;20215;-73
2021/01/16 03:50:04;;;;;;;23.63;17.67;;;0.10;98.90;;;;;;5086455;28;20275;-75
2021/01/16 03:52:35;;;;;;;24.93;18.30;;;0.10;99.10;;;;;;5084715;28;20197;-74
2021/01/16 03:55:01;;;;;;;24.63;17.50;;;0.10;99.10;;;;;;5086124;28;20190;-75
2021/01/16 03:57:27;;;;;;;23.87;17.57;;;0.10;99.00;;;;;;5077150;28;20224;-75
2021/01/16 03:59:56;;;;;;;25.20;17.90;;;0.10;99.20;;;;;;5084472;28;20236;-74
2021/01/16 04:02:22;;;;;;;25.20;18.30;;;0.00;99.20;;;;;;5084227;28;20729;-74
2021/01/16 04:04:48;;;;;;;22.53;17.47;;;0.00;99.20;;;;;;5078307;28;20273;-76
2021/01/16 04:07:15;;;;;;;27.07;18.93;;;0.10;99.20;;;;;;5081241;28;20209;-74
2021/01/16 04:09:41;;;;;;;23.87;17.50;;;0.10;99.30;;;;;;5087692;28;20348;-74
2021/01/16 04:12:07;;;;;;;23.97;17.90;;;0.10;99.10;;;;;;5081981;28;20671;-75
2021/01/16 04:14:33;;;;;;;25.57;19.30;;;0.10;99.00;;;;;;5086379;28;20186;-74
2021/01/16 04:16:59;;;;;;;26.10;19.17;;;0.10;99.10;;;;;;5077980;28;20218;-74
2021/01/16 04:19:25;;;;;;;24.40;18.70;;;0.00;99.30;;;;;;5078179;28;20583;-73
2021/01/16 04:21:51;;;;;;;24.53;18.03;;;0.00;99.80;;;;;;5077306;28;20268;-75
2021/01/16 04:24:16;;;;;;;25.33;18.37;;;0.00;99.30;;;;;;5078450;28;20180;-75
2021/01/16 04:26:42;;;;;;;24.23;18.00;;;0.00;99.30;;;;;;5079045;28;20216;-73
2021/01/16 04:29:07;;;;;;;26.30;19.07;;;0.00;99.40;;;;;;5087802;28;20766;-74
2021/01/16 04:31:33;;;;;;;26.37;18.70;;;0.00;99.60;;;;;;5078995;28;20185;-74
2021/01/16 04:33:59;;;;;;;25.90;18.40;;;0.00;99.90;;;;;;5083052;28;20194;-75
2021/01/16 04:36:25;;;;;;;28.43;19.60;;;0.00;99.40;;;;;;5075096;28;20200;-75
2021/01/16 04:38:51;;;;;;;25.30;19.13;;;0.00;99.50;;;;;;5079454;28;20178;-75
2021/01/16 04:41:22;;;;;;;27.00;20.60;;;0.00;99.60;;;;;;5088955;28;20185;-75
2021/01/16 04:43:48;;;;;;;27.97;19.30;;;0.00;99.70;;;;;;5081935;28;20178;-75
2021/01/16 04:46:15;;;;;;;26.00;20.17;;;-0.10;99.70;;;;;;5078002;28;20208;-75
2021/01/16 04:48:43;;;;;;;28.30;19.87;;;-0.10;99.80;;;;;;5075081;28;20673;-76
2021/01/16 04:51:11;;;;;;;28.30;19.70;;;-0.10;99.90;;;;;;5083682;28;20200;-75
2021/01/16 04:53:41;;;;;;;30.07;20.27;;;-0.10;99.90;;;;;;5068519;28;20568;-76
2021/01/16 04:56:08;;;;;;;30.30;20.97;;;-0.10;99.90;;;;;;5075039;28;20680;-75
2021/01/16 04:58:36;;;;;;;29.80;19.70;;;-0.20;99.90;;;;;;5079617;28;20194;-76
2021/01/16 05:01:04;;;;;;;26.80;20.13;;;-0.20;99.90;;;;;;5076494;28;20213;-75
2021/01/16 05:03:44;;;;;;;31.37;21.33;;;-0.20;99.90;;;;;;5078328;28;20635;-75
2021/01/16 05:06:11;;;;;;;31.33;21.43;;;-0.10;99.90;;;;;;5073621;28;20183;-75
2021/01/16 05:08:42;;;;;;;30.80;20.93;;;-0.10;99.90;;;;;;5085170;28;20739;-75
2021/01/16 05:11:30;;;;;;;30.50;21.37;;;0.00;99.90;;;;;;5079998;28;20207;-75
2021/01/16 05:14:14;;;;;;;29.97;20.53;;;-0.10;99.90;;;;;;5077641;28;20182;-74
2021/01/16 05:16:56;;;;;;;28.77;20.53;;;0.00;99.90;;;;;;5082617;28;20278;-75
2021/01/16 05:19:28;;;;;;;31.93;22.27;;;0.00;99.90;;;;;;5081857;28;20182;-75
2021/01/16 05:21:55;;;;;;;28.23;21.13;;;0.00;99.90;;;;;;5090828;28;20201;-76
2021/01/16 05:24:21;;;;;;;32.37;22.87;;;0.00;99.90;;;;;;5079087;28;20863;-75
2021/01/16 05:27:05;;;;;;;29.33;21.23;;;0.00;99.90;;;;;;5078593;28;20207;-75
2021/01/16 05:29:34;;;;;;;31.70;21.53;;;0.00;99.90;;;;;;5081150;28;20194;-76
2021/01/16 05:32:03;;;;;;;30.80;20.63;;;0.00;99.90;;;;;;5079657;28;20236;-75
2021/01/16 05:34:30;;;;;;;29.57;22.10;;;0.00;99.90;;;;;;5083655;28;20185;-75
2021/01/16 05:36:57;;;;;;;32.93;23.63;;;0.10;99.90;;;;;;5085817;28;20210;-75
2021/01/16 05:39:28;;;;;;;28.30;20.83;;;0.10;99.90;;;;;;5079384;28;20236;-76
2021/01/16 05:42:02;;;;;;;28.30;20.70;;;0.10;99.90;;;;;;5079770;28;20261;-75
2021/01/16 05:44:28;;;;;;;29.27;21.07;;;0.10;99.90;;;;;;5089172;28;20191;-76
2021/01/16 05:46:54;;;;;;;29.43;21.30;;;0.10;99.90;;;;;;5083074;28;20213;-75
2021/01/16 05:49:21;;;;;;;30.67;21.63;;;0.10;99.90;;;;;;5075471;28;20193;-76
2021/01/16 05:51:47;;;;;;;32.33;21.70;;;0.10;99.90;;;;;;5083194;28;20179;-76
2021/01/16 05:54:16;;;;;;;31.63;22.33;;;0.00;99.90;;;;;;5080471;28;20656;-75
2021/01/16 05:56:43;;;;;;;32.03;21.27;;;0.00;99.90;;;;;;5081914;28;20722;-74
2021/01/16 05:59:11;;;;;;;30.60;21.60;;;0.10;99.90;;;;;;5075395;28;20271;-75
2021/01/16 06:01:38;;;;;;;29.90;22.07;;;0.00;99.90;;;;;;5086064;28;20195;-76
2021/01/16 06:04:05;;;;;;;28.43;21.50;;;0.00;99.90;;;;;;5085417;28;20205;-77
2021/01/16 06:06:35;;;;;;;31.33;21.90;;;0.00;99.90;;;;;;5082205;28;20206;-77
2021/01/16 06:09:02;;;;;;;27.97;20.17;;;-0.10;99.90;;;;;;5080843;28;20223;-77
2021/01/16 06:11:38;;;;;;;31.20;22.07;;;-0.10;99.90;;;;;;5078133;28;20185;-76
2021/01/16 06:14:06;;;;;;;29.27;21.60;;;-0.10;99.90;;;;;;5080512;28;20204;-76
2021/01/16 06:16:50;;;;;;;42.17;26.67;;;-0.10;99.90;;;;;;5079923;28;20268;-76
2021/01/16 06:19:18;;;;;;;44.90;27.03;;;-0.10;99.90;;;;;;5078376;28;20179;-76
2021/01/16 06:21:45;;;;;;;34.37;23.63;;;-0.10;99.90;;;;;;5080596;28;20615;-76
2021/01/16 06:24:15;;;;;;;36.57;24.03;;;-0.10;99.90;;;;;;5077029;28;20213;-78
2021/01/16 06:26:42;;;;;;;36.13;25.13;;;-0.10;99.90;;;;;;5079948;28;20636;-78
2021/01/16 06:29:23;;;;;;;36.37;24.73;;;-0.10;99.90;;;;;;5081412;28;20649;-78
2021/01/16 06:31:50;;;;;;;34.20;21.40;;;-0.10;99.90;;;;;;5079885;28;20227;-78
2021/01/16 06:34:29;;;;;;;31.83;22.67;;;-0.20;99.90;;;;;;5078698;28;20236;-78
2021/01/16 06:37:13;;;;;;;33.27;22.97;;;-0.10;99.90;;;;;;5091605;28;20208;-77
2021/01/16 06:39:43;;;;;;;29.83;21.57;;;-0.10;99.90;;;;;;5097426;28;20193;-77
2021/01/16 06:42:11;;;;;;;33.20;21.93;;;-0.10;99.90;;;;;;5079019;28;20196;-77
2021/01/16 06:44:38;;;;;;;28.90;20.73;;;-0.20;99.90;;;;;;5080683;28;20581;-77
2021/01/16 06:47:04;;;;;;;30.90;21.00;;;-0.20;99.90;;;;;;5083888;28;20677;-77
2021/01/16 06:49:31;;;;;;;31.77;22.63;;;-0.20;99.90;;;;;;5074338;28;20195;-76
2021/01/16 06:52:05;;;;;;;33.27;23.80;;;-0.20;99.90;;;;;;5081370;28;20680;-77
2021/01/16 06:54:35;;;;;;;34.67;24.07;;;-0.20;99.90;;;;;;5076873;28;20217;-77
2021/01/16 06:57:13;;;;;;;39.83;25.80;;;-0.10;99.90;;;;;;5083301;28;20202;-79
2021/01/16 06:59:43;;;;;;;38.50;25.70;;;-0.10;99.90;;;;;;5077087;28;20553;-77
2021/01/16 07:02:29;;;;;;;32.60;22.50;;;-0.10;99.90;;;;;;5081504;28;20318;-77
2021/01/16 07:05:04;;;;;;;31.80;22.13;;;-0.10;99.90;;;;;;5072691;28;20186;-77
2021/01/16 07:07:34;;;;;;;32.07;21.63;;;-0.10;99.90;;;;;;5080254;28;20287;-77
2021/01/16 07:10:10;;;;;;;29.40;21.50;;;0.00;99.90;;;;;;5073706;28;20192;-77
2021/01/16 07:12:37;;;;;;;33.20;21.30;;;0.00;99.50;;;;;;5077194;28;20879;-77
2021/01/16 07:15:05;;;;;;;31.10;21.60;;;0.00;99.10;;;;;;5082043;28;20216;-77
2021/01/16 07:17:31;;;;;;;27.77;20.27;;;0.00;99.20;;;;;;5077610;28;20676;-77
2021/01/16 07:19:58;;;;;;;27.87;21.03;;;-0.10;99.30;;;;;;5082778;28;20194;-77
2021/01/16 07:22:31;;;;;;;29.83;21.03;;;-0.10;99.40;;;;;;5079358;28;20191;-77
2021/01/16 07:24:59;;;;;;;28.43;19.97;;;-0.10;99.40;;;;;;5077599;28;20556;-77
2021/01/16 07:27:26;;;;;;;31.27;22.03;;;-0.10;99.30;;;;;;5078416;28;20220;-77
2021/01/16 07:29:56;;;;;;;29.43;20.23;;;-0.10;99.30;;;;;;5084383;28;20189;-76
2021/01/16 07:32:58;;;;;;;26.10;19.50;;;0.00;99.30;;;;;;5084062;28;20182;-78
2021/01/16 07:35:24;;;;;;;27.43;19.40;;;0.00;99.30;;;;;;5094236;28;20218;-77
2021/01/16 07:37:53;;;;;;;25.93;18.77;;;0.10;99.60;;;;;;5101771;28;20220;-77
2021/01/16 07:40:24;;;;;;;26.43;19.17;;;0.10;99.10;;;;;;5083926;28;20276;-77
2021/01/16 07:43:01;;;;;;;26.00;19.03;;;0.10;98.90;;;;;;5081378;28;20177;-77
2021/01/16 07:45:39;;;;;;;26.57;19.83;;;0.20;98.50;;;;;;5078956;28;20188;-78
2021/01/16 07:48:06;;;;;;;28.53;20.80;;;0.10;98.20;;;;;;5078707;28;20257;-77
2021/01/16 07:50:34;;;;;;;28.37;20.57;;;0.10;98.40;;;;;;5082940;28;20636;-77
2021/01/16 07:53:03;;;;;;;31.03;21.43;;;0.10;98.20;;;;;;5081124;28;20193;-77
2021/01/16 07:55:45;;;;;;;27.90;20.80;;;0.10;98.20;;;;;;5080508;28;20194;-77
2021/01/16 07:58:32;;;;;;;32.07;21.97;;;0.10;98.30;;;;;;5082254;28;20360;-77
2021/01/16 08:01:16;;;;;;;31.60;20.70;;;0.10;98.10;;;;;;5077736;28;20223;-77
2021/01/16 08:03:45;;;;;;;31.07;20.70;;;0.10;98.10;;;;;;5078862;28;20183;-78
2021/01/16 08:06:31;;;;;;;29.67;20.87;;;0.00;98.10;;;;;;5077688;28;20183;-77
2021/01/16 08:09:21;;;;;;;27.17;19.20;;;0.00;98.40;;;;;;5083057;28;20240;-77
2021/01/16 08:11:51;;;;;;;28.00;19.37;;;0.00;98.60;;;;;;5082914;28;20185;-77
2021/01/16 08:14:22;;;;;;;28.87;20.53;;;0.10;98.90;;;;;;5078631;28;20189;-77
2021/01/16 08:16:56;;;;;;;25.57;18.67;;;0.10;98.50;;;;;;5083891;28;20259;-77
2021/01/16 08:19:29;;;;;;;29.00;20.47;;;0.20;98.00;;;;;;5086184;28;20192;-78
2021/01/16 08:21:56;;;;;;;50.87;31.57;;;0.30;98.00;;;;;;5085352;28;20186;-77
2021/01/16 08:24:27;;;;;;;45.77;30.33;;;0.30;98.20;;;;;;5088132;28;20179;-77
2021/01/16 08:27:04;;;;;;;30.17;21.40;;;0.40;98.20;;;;;;5078941;28;20255;-76
2021/01/16 08:29:32;;;;;;;26.63;20.23;;;0.40;98.00;;;;;;5080999;28;20180;-77
2021/01/16 08:32:09;;;;;;;26.97;19.70;;;0.50;97.60;;;;;;5079127;28;20181;-77
2021/01/16 08:34:58;;;;;;;24.83;18.67;;;0.50;97.40;;;;;;5082857;28;20186;-77
2021/01/16 08:37:36;;;;;;;28.00;18.83;;;0.50;97.00;;;;;;5080349;28;20221;-77
2021/01/16 08:40:06;;;;;;;23.97;18.77;;;0.40;97.10;;;;;;5078599;28;20186;-77
2021/01/16 08:42:32;;;;;;;26.63;19.43;;;0.40;97.20;;;;;;5079922;28;20174;-77
2021/01/16 08:44:58;;;;;;;27.17;20.13;;;0.40;97.70;;;;;;5083943;28;20189;-76
2021/01/16 08:47:24;;;;;;;23.83;17.90;;;0.50;97.70;;;;;;5085006;28;20206;-77
2021/01/16 08:49:51;;;;;;;24.77;18.33;;;0.50;97.10;;;;;;5079502;28;20187;-77
2021/01/16 08:52:33;;;;;;;23.43;18.37;;;0.50;97.00;;;;;;5078869;28;20572;-77
2021/01/16 08:55:00;;;;;;;24.47;17.30;;;0.60;97.10;;;;;;5080326;28;20196;-77
2021/01/16 08:57:32;;;;;;;27.77;19.57;;;0.60;97.10;;;;;;5083065;28;20197;-77
2021/01/16 09:00:18;;;;;;;23.93;18.40;;;0.70;97.00;;;;;;5082855;28;20189;-77
2021/01/16 09:03:07;;;;;;;26.33;20.07;;;0.70;96.60;;;;;;5089538;28;20179;-77
2021/01/16 09:05:34;;;;;;;29.30;20.63;;;0.80;96.70;;;;;;5084287;28;20206;-78
2021/01/16 09:08:01;;;;;;;27.73;20.30;;;0.90;96.80;;;;;;5085821;28;20206;-77
2021/01/16 09:10:28;;;;;;;26.67;20.07;;;1.00;96.60;;;;;;5081159;28;20195;-77
2021/01/16 09:12:54;;;;;;;26.33;18.30;;;1.10;96.50;;;;;;5089238;28;20186;-77
2021/01/16 09:15:25;;;;;;;23.07;18.70;;;1.20;96.00;;;;;;5084330;28;20264;-78
2021/01/16 09:17:59;;;;;;;25.93;19.33;;;1.30;95.40;;;;;;5092221;28;20216;-79
2021/01/16 09:20:25;;;;;;;25.47;18.50;;;1.30;94.90;;;;;;5089528;28;20347;-78
2021/01/16 09:22:51;;;;;;;19.63;16.30;;;1.30;95.50;;;;;;5089687;28;20282;-78
2021/01/16 09:25:26;;;;;;;23.17;16.83;;;1.40;94.30;;;;;;5082903;28;20736;-78
2021/01/16 09:27:53;;;;;;;23.47;16.73;;;1.50;93.40;;;;;;5078893;28;20197;-78
2021/01/16 09:30:30;;;;;;;20.00;16.17;;;1.30;93.60;;;;;;5084250;28;20186;-77
2021/01/16 09:32:56;;;;;;;18.43;15.17;;;1.40;93.40;;;;;;5080052;28;20258;-78
2021/01/16 09:35:39;;;;;;;18.87;15.17;;;1.60;93.30;;;;;;5080309;28;20185;-78
2021/01/16 09:38:19;;;;;;;20.17;16.87;;;1.60;92.40;;;;;;5084667;28;20212;-79
2021/01/16 09:40:46;;;;;;;18.70;14.00;;;1.70;92.60;;;;;;5080677;28;20178;-79
2021/01/16 09:43:24;;;;;;;16.60;14.20;;;1.70;91.50;;;;;;5085252;28;20186;-79
2021/01/16 09:46:00;;;;;;;16.73;14.27;;;1.70;90.80;;;;;;5079163;28;20360;-78
2021/01/16 09:48:42;;;;;;;18.67;14.13;;;1.60;91.10;;;;;;5083936;28;20257;-78
2021/01/16 09:51:12;;;;;;;17.20;13.43;;;1.60;91.10;;;;;;5078409;28;20578;-78
2021/01/16 09:53:39;;;;;;;19.77;14.67;;;1.70;91.50;;;;;;5081913;28;20181;-78
2021/01/16 09:56:05;;;;;;;18.00;15.00;;;1.80;91.10;;;;;;5073361;28;20184;-78
2021/01/16 09:58:41;;;;;;;18.97;14.47;;;2.00;90.80;;;;;;5078048;28;20211;-78
2021/01/16 10:01:23;;;;;;;15.83;13.13;;;2.10;90.90;;;;;;5082504;28;20555;-78
2021/01/16 10:03:50;;;;;;;15.67;12.80;;;2.00;88.40;;;;;;5080441;28;20176;-78
2021/01/16 10:06:19;;;;;;;14.87;13.30;;;2.00;89.00;;;;;;5082220;28;20521;-78
2021/01/16 10:08:49;;;;;;;13.73;11.87;;;2.00;89.90;;;;;;5085794;28;20176;-80
2021/01/16 10:11:41;;;;;;;16.03;13.13;;;2.10;88.80;;;;;;5077926;28;20240;-77
2021/01/16 10:14:17;;;;;;;16.20;13.17;;;2.20;89.40;;;;;;5078285;28;20192;-78
2021/01/16 10:16:44;;;;;;;13.70;12.10;;;2.30;87.90;;;;;;5084749;28;20204;-77
2021/01/16 10:19:14;;;;;;;18.70;14.60;;;2.20;86.10;;;;;;5075596;28;20185;-77
2021/01/16 10:21:56;;;;;;;16.63;13.63;;;2.10;90.30;;;;;;5078749;28;20190;-78
2021/01/16 10:24:23;;;;;;;13.07;11.67;;;2.00;90.90;;;;;;5076085;28;20227;-77
2021/01/16 10:26:49;;;;;;;15.70;12.77;;;1.90;86.10;;;;;;5080244;28;20561;-77
2021/01/16 10:29:27;;;;;;;13.67;11.37;;;2.10;88.40;;;;;;5082778;28;20174;-79
2021/01/16 10:31:52;;;;;;;17.63;12.70;;;2.40;82.80;;;;;;5096592;28;20181;-79
2021/01/16 10:34:19;;;;;;;15.13;12.43;;;2.60;82.50;;;;;;5103250;28;20192;-77
2021/01/16 10:36:46;;;;;;;13.07;11.47;;;2.90;82.30;;;;;;5085883;28;20235;-77
2021/01/16 10:39:13;;;;;;;16.97;12.60;;;3.30;77.70;;;;;;5091365;28;20195;-78
2021/01/16 10:41:40;;;;;;;13.67;11.20;;;3.50;76.30;;;;;;5077777;28;20598;-78
2021/01/16 10:44:11;;;;;;;14.10;12.20;;;3.60;72.60;;;;;;5088445;28;20210;-77
2021/01/16 10:46:45;;;;;;;17.60;13.77;;;3.60;74.60;;;;;;5075686;28;20203;-77
2021/01/16 10:49:21;;;;;;;12.90;10.93;;;3.90;71.30;;;;;;5075716;28;20186;-77
2021/01/16 10:51:59;;;;;;;12.77;10.67;;;3.90;70.40;;;;;;5079721;28;20199;-76
2021/01/16 10:54:25;;;;;;;17.27;13.13;;;4.10;69.90;;;;;;5079173;28;20189;-77
2021/01/16 10:57:05;;;;;;;13.77;12.13;;;4.50;70.00;;;;;;5084175;28;20213;-77
2021/01/16 10:59:38;;;;;;;12.87;10.33;;;4.90;65.70;;;;;;5081256;28;20267;-77
2021/01/16 11:02:15;;;;;;;13.33;11.63;;;4.90;63.80;;;;;;5083502;28;20219;-77
2021/01/16 11:04:46;;;;;;;14.70;12.40;;;5.00;63.80;;;;;;5084570;28;20235;-77
2021/01/16 11:07:28;;;;;;;17.40;13.73;;;4.90;62.60;;;;;;5089882;28;21035;-77
2021/01/16 11:10:05;;;;;;;17.20;13.33;;;5.00;62.20;;;;;;5094386;28;20219;-78
2021/01/16 11:12:30;;;;;;;17.13;12.43;;;5.20;60.40;;;;;;5084676;28;20653;-78
2021/01/16 11:14:56;;;;;;;13.47;10.50;;;5.30;60.50;;;;;;5092116;28;20196;-77
2021/01/16 11:17:46;;;;;;;8.23;7.43;;;6.60;58.70;;;;;;5082897;28;20208;-77
2021/01/16 11:20:33;;;;;;;8.33;7.53;;;10.40;49.40;;;;;;5087356;28;20669;-77
2021/01/16 11:23:04;;;;;;;8.55;7.75;;;12.30;41.10;;;;;;5083303;28;20269;-76
2021/01/16 11:25:47;;;;;;;10.02;9.13;;;12.70;39.50;;;;;;5085075;28;20175;-77
2021/01/16 11:28:18;;;;;;;8.02;7.32;;;14.30;37.60;;;;;;5087873;28;20206;-76
2021/01/16 11:30:46;;;;;;;7.72;7.13;;;15.80;32.50;;;;;;5076073;28;20268;-77
2021/01/16 11:33:32;;;;;;;7.07;6.47;;;15.60;30.90;;;;;;5082972;28;20242;-77
2021/01/16 11:36:14;;;;;;;8.30;6.25;;;15.20;30.70;;;;;;5086704;28;20242;-76
2021/01/16 11:38:49;;;;;;;8.90;8.15;;;15.50;30.90;;;;;;5081285;28;20260;-77
2021/01/16 11:41:55;;;;;;;6.55;6.03;;;16.60;30.40;;;;;;5088607;28;20274;-76
2021/01/16 11:44:21;;;;;;;5.43;4.93;;;15.40;30.10;;;;;;5077180;28;20586;-79
2021/01/16 11:46:51;;;;;;;5.35;4.95;;;14.00;32.30;;;;;;5081684;28;20226;-77
2021/01/16 11:49:17;;;;;;;6.38;5.80;;;14.70;31.50;;;;;;5079909;28;20236;-77
2021/01/16 11:51:43;;;;;;;5.55;5.05;;;15.80;29.90;;;;;;5087816;28;20194;-77
2021/01/16 11:54:08;;;;;;;6.30;5.70;;;16.60;28.60;;;;;;5080532;28;20179;-75
2021/01/16 11:56:37;;;;;;;6.63;5.10;;;16.00;28.50;;;;;;5083844;28;20215;-77
2021/01/16 11:59:03;;;;;;;3.65;3.35;;;15.90;29.20;;;;;;5082416;28;20669;-77
2021/01/16 12:01:30;;;;;;;3.20;2.92;;;15.40;28.80;;;;;;5075929;28;20240;-77
2021/01/16 12:04:03;;;;;;;3.60;3.30;;;15.70;27.90;;;;;;5084536;28;20202;-77
2021/01/16 12:06:31;;;;;;;3.63;3.30;;;15.40;28.10;;;;;;5079451;28;20932;-76
2021/01/16 12:08:58;;;;;;;3.88;3.30;;;15.60;28.10;;;;;;5080143;28;20182;-79
2021/01/16 12:11:25;;;;;;;3.80;3.50;;;13.70;29.30;;;;;;5077542;28;20183;-77
2021/01/16 12:13:51;;;;;;;3.60;3.30;;;14.00;29.80;;;;;;5090313;28;20227;-76
2021/01/16 12:16:18;;;;;;;4.40;4.00;;;13.30;29.60;;;;;;5075505;28;20560;-78
2021/01/16 12:18:44;;;;;;;3.60;3.30;;;13.10;30.60;;;;;;5082799;28;20291;-78
2021/01/16 12:21:11;;;;;;;2.65;2.45;;;13.40;31.00;;;;;;5075236;28;20680;-77
2021/01/16 12:23:45;;;;;;;4.07;2.72;;;13.80;29.50;;;;;;5079952;28;20225;-76
2021/01/16 12:26:13;;;;;;;3.80;3.13;;;14.10;29.00;;;;;;5090546;28;20175;-78
2021/01/16 12:28:45;;;;;;;3.40;3.13;;;14.60;29.00;;;;;;5101796;28;20265;-78
2021/01/16 12:31:23;;;;;;;3.78;3.30;;;13.90;28.70;;;;;;5091579;28;20191;-79
2021/01/16 12:33:50;;;;;;;3.45;3.13;;;13.90;29.70;;;;;;5089744;28;20175;-75
2021/01/16 12:36:17;;;;;;;4.10;3.50;;;15.00;29.30;;;;;;5078005;28;20629;-74
2021/01/16 12:38:50;;;;;;;3.03;2.72;;;15.40;28.40;;;;;;5091781;28;20191;-76
2021/01/16 12:41:23;;;;;;;5.18;3.97;;;15.00;27.90;;;;;;5085360;28;20235;-76
2021/01/16 12:43:50;;;;;;;2.80;2.60;;;15.10;29.30;;;;;;5085085;28;20182;-76
2021/01/16 12:46:17;;;;;;;3.65;3.35;;;14.90;28.00;;;;;;5082729;28;20530;-75
2021/01/16 12:48:43;;;;;;;3.97;3.65;;;15.50;28.70;;;;;;5078861;28;20316;-77
2021/01/16 12:51:14;;;;;;;8.07;4.78;;;15.30;28.40;;;;;;5081033;28;20261;-79
2021/01/16 12:53:42;;;;;;;6.80;4.35;;;14.60;29.60;;;;;;5079412;28;20655;-76